createdAt,value
2018-11-29T12:22:27.660Z,100528.45
2018-11-29T12:24:57.220Z,100534.83
2018-11-29T12:27:26.740Z,100534.27
2018-11-29T12:29:56.607Z,100555.27
2018-11-29T12:32:26.162Z,100578.63
2018-11-29T12:34:55.880Z,100685.08
2018-11-29T12:37:25.382Z,100683.79
2018-11-29T12:39:54.967Z,100670.84
2018-11-29T12:42:24.532Z,100670.67
2018-11-29T12:44:54.508Z,100682.55
2018-11-29T12:47:24.064Z,100652.84
2018-11-29T12:49:54.127Z,100624.77
2018-11-29T12:52:23.624Z,100659.88
2018-11-29T12:54:53.401Z,100706.66
2018-11-29T12:57:23.031Z,100658.36
2018-11-29T12:59:52.646Z,100636.41
2018-11-29T13:02:22.210Z,100675.25
2018-11-29T13:04:52.579Z,100656.86
2018-11-29T13:07:23.047Z,100650.00
2018-11-29T13:09:52.575Z,100626.69
2018-11-29T13:12:22.105Z,100594.33
2018-11-29T13:14:55.000Z,100566.33
2018-11-29T13:17:24.666Z,100557.70
2018-11-29T13:19:54.146Z,100603.39
2018-11-29T13:22:23.526Z,100578.80
2018-11-29T13:24:53.034Z,100607.23
2018-11-29T13:27:22.535Z,100595.93
2018-11-29T13:29:52.290Z,100553.20
2018-11-29T13:32:21.772Z,100541.42
2018-11-29T13:34:51.772Z,100547.50
2018-11-29T13:37:21.272Z,100580.73
2018-11-29T13:39:50.840Z,100563.43
2018-11-29T13:42:21.566Z,100552.24
2018-11-29T13:44:51.080Z,100532.49
2018-11-29T13:47:20.512Z,100541.52
2018-11-29T13:49:50.054Z,100500.55
2018-11-29T13:52:19.477Z,100509.62
2018-11-29T13:54:48.939Z,100481.95
2018-11-29T13:57:18.396Z,100482.05
2018-11-29T13:59:47.955Z,100496.28
2018-11-29T14:02:17.419Z,100475.95
2018-11-29T14:04:47.117Z,100463.78
2018-11-29T14:07:16.714Z,100468.56
2018-11-29T14:09:46.323Z,100446.48
2018-11-29T14:12:15.942Z,100445.22
2018-11-29T14:14:45.611Z,100446.40
2018-11-29T14:17:15.512Z,100435.17
2018-11-29T14:19:45.136Z,100429.90
2018-11-29T14:22:15.049Z,100426.77
2018-11-29T14:24:44.566Z,100416.39
2018-11-29T14:27:14.281Z,100424.06
2018-11-29T14:29:44.023Z,100435.19
2018-11-29T14:32:13.619Z,100442.81
2018-11-29T14:34:43.246Z,100439.28
2018-11-29T14:37:12.954Z,100453.80
2018-11-29T14:39:43.060Z,100444.75
2018-11-29T14:42:12.661Z,100456.41
2018-11-29T14:44:42.281Z,100466.77
2018-11-29T14:47:11.880Z,100462.02
2018-11-29T14:49:41.525Z,100499.59
2018-11-29T14:52:11.317Z,100492.56
2018-11-29T14:54:41.085Z,100491.33
2018-11-29T14:57:10.760Z,100493.98
2018-11-29T14:59:40.435Z,100488.80
2018-11-29T15:02:10.143Z,100492.30
2018-11-29T15:04:39.745Z,100497.43
2018-11-29T15:07:09.360Z,100496.19
2018-11-29T15:09:39.057Z,100505.20
2018-11-29T15:12:08.762Z,100500.08
2018-11-29T15:14:38.275Z,100480.69
2018-11-29T15:17:07.859Z,100468.17
2018-11-29T15:19:37.686Z,100487.17
2018-11-29T15:22:07.628Z,100478.42
2018-11-29T15:24:37.459Z,100490.95
2018-11-29T15:27:07.623Z,100476.59
2018-11-29T15:29:37.320Z,100479.71
2018-11-29T15:32:07.118Z,100483.23
2018-11-29T15:34:36.959Z,100475.55
2018-11-29T15:37:06.562Z,100470.66
2018-11-29T15:39:36.162Z,100466.71
2018-11-29T15:42:05.908Z,100460.23
2018-11-29T15:44:35.415Z,100483.60
2018-11-29T15:47:05.245Z,100482.20
2018-11-29T15:49:34.801Z,100492.95
2018-11-29T15:52:04.903Z,100513.69
2018-11-29T15:54:34.420Z,100500.79
2018-11-29T15:57:04.534Z,100473.56
2018-11-29T15:59:37.188Z,100472.16
2018-11-29T16:02:07.085Z,100477.52
2018-11-29T16:04:36.649Z,100469.69
2018-11-29T16:07:06.840Z,100468.88
2018-11-29T16:09:36.382Z,100468.59
2018-11-29T16:12:06.194Z,100458.88
2018-11-29T16:14:35.831Z,100458.94
2018-11-29T16:17:05.476Z,100496.41
2018-11-29T16:19:34.958Z,100452.41
2018-11-29T16:22:04.498Z,100455.86
2018-11-29T16:24:33.903Z,100454.02
2018-11-29T16:27:03.301Z,100447.11
2018-11-29T16:29:32.877Z,100442.75
2018-11-29T16:32:02.350Z,100432.80
2018-11-29T16:34:31.816Z,100443.92
2018-11-29T16:37:01.266Z,100463.36
2018-11-29T16:39:31.708Z,100468.55
2018-11-29T16:42:00.408Z,100469.20
2018-11-29T16:44:29.929Z,100432.79
2018-11-29T16:46:59.391Z,100455.27
2018-11-29T16:49:28.746Z,100482.03
2018-11-29T16:51:58.337Z,100445.73
2018-11-29T16:54:27.931Z,100471.55
2018-11-29T16:56:57.308Z,100466.00
2018-11-29T16:59:26.673Z,100466.27
2018-11-29T17:01:56.047Z,100497.36
2018-11-29T17:04:25.452Z,100467.44
2018-11-29T17:06:55.082Z,100478.30
2018-11-29T17:09:24.568Z,100464.09
2018-11-29T17:11:54.222Z,100468.80
2018-11-29T17:14:23.693Z,100469.55
2018-11-29T17:16:53.508Z,100463.93
2018-11-29T17:19:23.222Z,100463.86
2018-11-29T17:21:52.904Z,100469.98
2018-11-29T17:24:22.298Z,100486.08
2018-11-29T17:26:51.725Z,100487.45
2018-11-29T17:29:21.265Z,100487.43
2018-11-29T17:31:50.650Z,100480.53
2018-11-29T17:34:20.175Z,100493.60
2018-11-29T17:36:49.583Z,100511.69
2018-11-29T17:39:18.966Z,100499.11
2018-11-29T17:41:48.864Z,100484.41
2018-11-29T17:44:18.383Z,100494.88
2018-11-29T17:46:47.806Z,100494.52
2018-11-29T17:49:17.182Z,100495.92
2018-11-29T17:51:46.586Z,100498.99
2018-11-29T17:54:16.077Z,100513.70
2018-11-29T17:56:45.494Z,100500.39
2018-11-29T17:59:14.938Z,100508.08
2018-11-29T18:01:44.470Z,100511.95
2018-11-29T18:04:13.886Z,100523.30
2018-11-29T18:06:43.524Z,100529.72
2018-11-29T18:09:13.646Z,100536.27
2018-11-29T18:11:43.020Z,100537.41
2018-11-29T18:14:12.520Z,100537.02
2018-11-29T18:16:41.958Z,100529.72
2018-11-29T18:19:13.294Z,100531.45
2018-11-29T18:21:41.084Z,100529.98
2018-11-29T18:24:10.565Z,100531.34
2018-11-29T18:26:40.480Z,100529.90
2018-11-29T18:29:09.923Z,100525.95
2018-11-29T18:31:39.526Z,100528.48
2018-11-29T18:34:09.113Z,100531.67
2018-11-29T18:36:38.602Z,100518.13
2018-11-29T18:39:09.690Z,100523.68
2018-11-29T18:41:40.347Z,100524.21
2018-11-29T18:44:10.155Z,100522.45
2018-11-29T18:46:40.140Z,100524.27
2018-11-29T18:49:09.585Z,100516.39
2018-11-29T18:51:38.982Z,100516.50
2018-11-29T18:54:08.719Z,100507.48
2018-11-29T18:56:38.187Z,100506.30
2018-11-29T18:59:07.658Z,100516.40
2018-11-29T19:01:37.072Z,100505.59
2018-11-29T19:04:06.702Z,100509.53
2018-11-29T19:06:36.507Z,100498.73
2018-11-29T19:09:08.858Z,100508.92
2018-11-29T19:11:38.572Z,100509.03
2018-11-29T19:14:08.249Z,100491.70
2018-11-29T19:16:37.704Z,100492.20
2018-11-29T19:19:07.186Z,100494.41
2018-11-29T19:21:36.693Z,100474.97
2018-11-29T19:24:06.813Z,100468.39
2018-11-29T19:26:36.698Z,100489.13
2018-11-29T19:29:07.339Z,100489.17
2018-11-29T19:31:36.792Z,100485.66
2018-11-29T19:34:06.767Z,100478.55
2018-11-29T19:36:36.186Z,100496.23
2018-11-29T19:39:08.370Z,100491.88
2018-11-29T19:41:37.926Z,100477.50
2018-11-29T19:44:07.409Z,100475.77
2018-11-29T19:46:36.868Z,100480.22
2018-11-29T19:49:06.547Z,100482.16
2018-11-29T19:51:36.062Z,100490.96
2018-11-29T19:54:05.850Z,100503.05
2018-11-29T19:56:35.690Z,100492.69
2018-11-29T19:59:05.311Z,100502.02
2018-11-29T20:01:35.588Z,100504.06
2018-11-29T20:04:05.331Z,100503.64
2018-11-29T20:06:34.701Z,100511.09
2018-11-29T20:09:05.032Z,100506.45
2018-11-29T20:11:34.604Z,100501.97
2018-11-29T20:14:04.006Z,100510.17
2018-11-29T20:16:33.615Z,100513.95
2018-11-29T20:19:03.078Z,100519.97
2018-11-29T20:21:32.528Z,100516.55
2018-11-29T20:24:02.242Z,100510.45
2018-11-29T20:26:31.728Z,100504.45
2018-11-29T20:29:01.242Z,100501.92
2018-11-29T20:31:30.776Z,100497.10
2018-11-29T20:34:00.200Z,100501.86
2018-11-29T20:36:29.869Z,100495.34
2018-11-29T20:38:59.447Z,100487.55
2018-11-29T20:41:29.199Z,100486.27
2018-11-29T20:43:58.517Z,100505.80
2018-11-29T20:46:27.963Z,100481.50
2018-11-29T20:48:57.725Z,100498.99
2018-11-29T20:51:27.145Z,100489.28
2018-11-29T20:53:56.600Z,100481.80
2018-11-29T20:56:26.024Z,100475.45
2018-11-29T20:58:55.522Z,100478.91
2018-11-29T21:01:25.123Z,100473.67
2018-11-29T21:03:54.516Z,100464.70
2018-11-29T21:06:24.030Z,100456.91
2018-11-29T21:08:58.357Z,100463.95
2018-11-29T21:11:29.881Z,100486.15
2018-11-29T21:14:03.631Z,100492.30
2018-11-29T21:16:33.497Z,100501.80
2018-11-29T21:19:07.159Z,100498.30
2018-11-29T21:21:38.131Z,100501.37
2018-11-29T21:24:08.448Z,100505.05
2018-11-29T21:26:38.058Z,100513.31
2018-11-29T21:29:09.903Z,100511.09
2018-11-29T21:31:40.534Z,100496.52
2018-11-29T21:34:10.367Z,100498.89
2018-11-29T21:36:41.678Z,100492.50
2018-11-29T21:39:17.229Z,100499.63
2018-11-29T21:41:47.415Z,100508.81
2018-11-29T21:44:20.097Z,100514.92
2018-11-29T21:46:49.776Z,100515.13
2018-11-29T21:49:25.456Z,100518.64
2018-11-29T21:51:57.749Z,100505.30
2018-11-29T21:54:32.424Z,100511.56
2018-11-29T21:57:01.898Z,100517.66
2018-11-29T21:59:37.753Z,100511.08
2018-11-29T22:02:10.399Z,100513.17
2018-11-29T22:04:41.926Z,100501.45
2018-11-29T22:07:14.571Z,100506.56
2018-11-29T22:09:50.001Z,100506.52
2018-11-29T22:12:22.101Z,100496.34
2018-11-29T22:14:55.359Z,100500.35
2018-11-29T22:20:10.565Z,100493.36
2018-11-29T22:22:41.834Z,100492.92
2018-11-29T22:25:14.776Z,100485.96
2018-11-29T22:27:45.968Z,100489.72
2018-11-29T22:30:19.181Z,100501.52
2018-11-29T22:32:49.886Z,100506.16
2018-11-29T22:35:23.976Z,100491.52
2018-11-29T22:38:00.319Z,100494.00
2018-11-29T22:46:41.088Z,100498.70
2018-11-29T22:55:02.840Z,100482.98
2018-11-29T22:57:32.242Z,100492.95
2018-11-29T23:02:56.670Z,100484.42
2018-11-29T23:05:28.194Z,100499.50
2018-11-29T23:07:58.330Z,100486.07
2018-11-29T23:10:27.904Z,100496.91
2018-11-29T23:12:57.503Z,100486.27
2018-11-29T23:15:27.137Z,100478.97
2018-11-29T23:17:56.680Z,100472.67
2018-11-29T23:20:26.112Z,100473.34
2018-11-29T23:22:55.618Z,100477.01
2018-11-29T23:25:25.061Z,100482.81
2018-11-29T23:27:54.671Z,100476.32
2018-11-29T23:30:24.192Z,100460.70
2018-11-29T23:32:53.683Z,100473.61
2018-11-29T23:35:23.146Z,100487.13
2018-11-29T23:37:52.555Z,100480.64
2018-11-29T23:40:22.305Z,100485.83
2018-11-29T23:42:51.787Z,100485.14
2018-11-29T23:45:21.494Z,100474.85
2018-11-29T23:47:51.005Z,100493.88
2018-11-29T23:50:51.049Z,100490.42
2018-11-29T23:53:20.696Z,100484.30
2018-11-29T23:55:50.281Z,100484.35
